This is the latest recevied weather packets stored in our database for station/object KI6AOK. If no packets are shown the sender has not sent any weather packets the latest 10 day(s).
| Time | Temp. | Humidity | Pressure | Rain* | Wind** | Luminosity | Snow |
|---|---|---|---|---|---|---|---|
| 1777578571 | 21.11° C | 55% | 1011.9 hPa | 0 mm | - | 624 W/m² | - |
| 1777578265 | 21.11° C | 56% | 1011.8 hPa | 0 mm | - | 443 W/m² | - |
| 1777577961 | 21.67° C | 55% | 1011.9 hPa | 0 mm | - | 565 W/m² | - |
| 1777577656 | 21.67° C | 55% | 1011.9 hPa | 0 mm | - | 515 W/m² | - |
| 1777577355 | 22.22° C | 54% | 1011.7 hPa | 0 mm | - | 577 W/m² | - |
| 1777577050 | 22.22° C | 54% | 1011.9 hPa | 0 mm | - | 923 W/m² | - |
| 1777576747 | 21.11° C | 56% | 1012.2 hPa | 0 mm | - | 931 W/m² | - |
| 1777576446 | 21.67° C | 57% | 1012 hPa | 0 mm | - | 761 W/m² | - |
| 1777576143 | 21.67° C | 55% | 1012.2 hPa | 0 mm | - | 528 W/m² | - |
| 1777575838 | 21.67° C | 56% | 1011.9 hPa | 0 mm | - | 891 W/m² | - |
| 1777575535 | 22.22° C | 54% | 1012.1 hPa | 0 mm | - | 874 W/m² | - |
| 1777575230 | 22.22° C | 55% | 1011.9 hPa | 0 mm | - | 879 W/m² | - |
| 1777574927 | 23.33° C | 50% | 1012.1 hPa | 0 mm | - | 862 W/m² | - |
| 1777574623 | 23.33° C | 49% | 1012.2 hPa | 0 mm | - | 880 W/m² | - |
| 1777574321 | 22.78° C | 51% | 1012.2 hPa | 0 mm | - | 873 W/m² | - |
| 1777574015 | 22.78° C | 50% | 1012.3 hPa | 0 mm | - | 861 W/m² | - |
| 1777573716 | 22.22° C | 50% | 1012.2 hPa | 0 mm | - | 851 W/m² | - |
| 1777573412 | 21.67° C | 49% | 1012.1 hPa | 0 mm | - | 860 W/m² | - |
| 1777573108 | 22.22° C | 46% | 1012.2 hPa | 0 mm | - | 850 W/m² | - |
| 1777572805 | 22.22° C | 46% | 1012.2 hPa | 0 mm | - | 840 W/m² | - |
| 1777572500 | 21.67° C | 48% | 1012.1 hPa | 0 mm | - | 814 W/m² | - |
| 1777572196 | 21.67° C | 47% | 1012.4 hPa | 0 mm | - | 804 W/m² | - |
| 1777571892 | 21.11° C | 48% | 1012.4 hPa | 0 mm | - | 793 W/m² | - |
| 1777571586 | 21.67° C | 47% | 1012.5 hPa | 0 mm | - | 789 W/m² | - |
| 1777571285 | 21.11° C | 49% | 1012.4 hPa | 0 mm | - | 789 W/m² | - |
* Rain latest hour (hover to see other rain measurements)
** Current wind speed in m/s (hover to see current wind gust speed)